EDT,Max TemperatureF,Mean TemperatureF,Min TemperatureF,Max Dew PointF,MeanDew PointF,Min DewpointF,Max Humidity, Mean Humidity, Min Humidity, Max Sea Level PressureIn, Mean Sea Level PressureIn, Min Sea Level PressureIn, Max VisibilityMiles, Mean VisibilityMiles, Min VisibilityMiles, Max Wind SpeedMPH, Mean Wind SpeedMPH, Max Gust SpeedMPH,PrecipitationIn, CloudCover, Events, WindDirDegrees
2013-10-1,77,68,59,63,59,55,94,78,54,30.15,30.10,30.06,10,10,10,9,4,,0.00,4,,232
2013-10-2,82,71,60,68,64,59,100,82,54,30.18,30.13,30.08,10,10,10,7,4,,0.00,4,,228
2013-10-3,78,70,62,68,66,63,100,89,61,30.16,30.11,30.08,10,8,0,9,3,,0.00,5,Fog,225
2013-10-4,82,71,60,66,64,61,100,79,51,30.17,30.12,30.09,10,9,0,10,4,,0.00,1,Fog,230
2013-10-5,86,75,64,68,65,63,100,82,51,30.13,30.08,30.00,10,10,5,15,5,23,0.06,5,Rain,217
2013-10-6,80,66,53,66,62,54,100,84,54,29.99,29.90,29.80,10,9,2,21,7,31,1.23,5,Rain,227
2013-10-7,62,53,44,54,46,43,100,78,48,30.18,30.02,29.89,10,10,5,15,5,21,0.14,2,Rain,290
2013-10-8,68,54,39,46,43,37,100,74,40,30.28,30.22,30.17,10,10,10,14,5,21,0.00,0,,83
2013-10-9,73,58,42,50,46,43,100,71,36,30.25,30.20,30.18,10,10,10,6,3,,0.00,0,,98
2013-10-10,73,56,39,52,46,37,100,74,38,30.20,30.16,30.10,10,10,7,6,1,,0.00,0,,37
2013-10-11,77,60,42,55,50,43,100,75,41,30.13,30.08,30.05,10,10,5,7,1,,0.00,0,,348
2013-10-12,77,62,46,61,56,46,100,79,47,30.16,30.11,30.06,10,10,7,5,1,,0.00,0,,90
2013-10-13,78,64,50,61,57,50,100,83,47,30.30,30.23,30.16,10,8,0,12,2,,0.00,2,Fog,27
2013-10-14,73,64,55,59,57,52,100,84,57,30.33,30.26,30.19,10,8,1,8,3,,0.00,3,,62
2013-10-15,71,65,59,61,60,59,100,84,69,30.20,30.10,30.01,10,10,5,9,5,,0.00,5,,201
2013-10-16,64,60,55,63,60,55,100,95,88,30.02,29.99,29.96,10,9,3,9,5,,0.16,7,Rain,245
2013-10-17,55,50,44,55,50,45,100,94,77,30.03,29.96,29.90,10,7,2,12,4,16,0.52,7,Rain,304
2013-10-18,62,50,37,48,43,37,100,82,48,30.10,30.04,30.00,10,7,0,8,4,,0.00,3,Fog,233
2013-10-19,50,44,39,50,43,39,100,91,82,30.06,29.96,29.89,10,10,5,12,6,18,0.04,4,Rain,247
2013-10-20,60,46,33,41,38,34,100,79,39,30.13,30.08,30.05,10,9,0,10,5,,0.00,1,Fog,233
2013-10-21,68,52,35,43,39,36,100,66,35,30.09,30.03,29.96,10,10,10,14,6,20,0.00,2,,237
2013-10-22,53,46,39,48,36,28,100,69,41,30.09,29.98,29.86,10,10,5,13,4,22,0.13,3,Rain,333
2013-10-23,44,38,33,45,38,34,100,87,70,30.08,29.93,29.76,10,9,2,17,6,25,0.06,7,Rain,277
2013-10-24,44,38,33,36,33,32,93,80,61,30.30,30.16,30.07,10,10,7,15,6,21,0.01,8,Rain-Snow,285
2013-10-25,46,38,30,32,29,25,100,78,46,30.47,30.39,30.30,10,10,1,8,4,,0.00,3,,307
2013-10-26,51,40,30,34,30,27,93,69,41,30.34,30.17,30.01,10,10,10,16,7,25,0.00,2,,242
2013-10-27,60,46,32,41,37,32,100,74,39,30.13,30.09,30.06,10,10,7,12,4,18,0.00,1,,261
2013-10-28,57,46,35,52,46,36,100,87,71,30.30,30.21,30.12,10,9,0,6,1,,0.00,7,Fog,126
2013-10-29,60,50,41,55,50,41,100,91,77,30.36,30.29,30.23,10,8,0,7,1,,0.00,6,Fog-Rain,142
2013-10-30,68,60,53,63,59,54,100,96,83,30.23,30.17,30.10,10,8,3,10,4,21,0.56,7,Rain,219
2013-10-31,69,66,62,61,57,54,94,79,64,30.10,29.84,29.52,10,10,7,28,12,41,0.02,5,Rain,217